sensor_id;sensor_type;location;lat;lon;timestamp;P1;durP1;ratioP1;P2;durP2;ratioP2
80621;SDS011;69980;51.914;7.526;2024-02-21T00:01:24;19.10;;;8.65;;
80621;SDS011;69980;51.914;7.526;2024-02-21T00:03:50;19.75;;;8.95;;
80621;SDS011;69980;51.914;7.526;2024-02-21T00:06:15;18.60;;;9.13;;
80621;SDS011;69980;51.914;7.526;2024-02-21T00:08:40;19.95;;;9.15;;
80621;SDS011;69980;51.914;7.526;2024-02-21T00:11:06;18.65;;;9.75;;
80621;SDS011;69980;51.914;7.526;2024-02-21T00:13:31;16.80;;;8.98;;
80621;SDS011;69980;51.914;7.526;2024-02-21T00:15:56;16.98;;;9.25;;
80621;SDS011;69980;51.914;7.526;2024-02-21T00:18:21;15.65;;;8.75;;
80621;SDS011;69980;51.914;7.526;2024-02-21T00:20:47;19.02;;;10.07;;
80621;SDS011;69980;51.914;7.526;2024-02-21T00:23:12;22.63;;;9.50;;
80621;SDS011;69980;51.914;7.526;2024-02-21T00:25:37;18.60;;;9.70;;
80621;SDS011;69980;51.914;7.526;2024-02-21T00:28:03;20.90;;;10.20;;
80621;SDS011;69980;51.914;7.526;2024-02-21T00:30:28;23.15;;;10.95;;
80621;SDS011;69980;51.914;7.526;2024-02-21T00:32:54;23.08;;;10.15;;
80621;SDS011;69980;51.914;7.526;2024-02-21T00:35:19;19.45;;;10.13;;
80621;SDS011;69980;51.914;7.526;2024-02-21T00:37:44;21.98;;;11.30;;
80621;SDS011;69980;51.914;7.526;2024-02-21T00:40:10;21.13;;;11.30;;
80621;SDS011;69980;51.914;7.526;2024-02-21T00:42:35;22.15;;;10.77;;
80621;SDS011;69980;51.914;7.526;2024-02-21T00:45:01;21.33;;;11.45;;
80621;SDS011;69980;51.914;7.526;2024-02-21T00:47:26;22.25;;;11.00;;
80621;SDS011;69980;51.914;7.526;2024-02-21T00:49:51;25.38;;;11.88;;
80621;SDS011;69980;51.914;7.526;2024-02-21T00:52:16;24.48;;;12.70;;
80621;SDS011;69980;51.914;7.526;2024-02-21T00:54:42;23.00;;;11.35;;
80621;SDS011;69980;51.914;7.526;2024-02-21T00:57:07;21.67;;;10.88;;
80621;SDS011;69980;51.914;7.526;2024-02-21T00:59:32;25.10;;;12.48;;
80621;SDS011;69980;51.914;7.526;2024-02-21T01:01:58;22.25;;;11.68;;
80621;SDS011;69980;51.914;7.526;2024-02-21T01:04:23;22.23;;;12.48;;
80621;SDS011;69980;51.914;7.526;2024-02-21T01:06:48;22.67;;;11.73;;
80621;SDS011;69980;51.914;7.526;2024-02-21T01:09:14;27.80;;;12.93;;
80621;SDS011;69980;51.914;7.526;2024-02-21T01:11:39;27.10;;;12.40;;
80621;SDS011;69980;51.914;7.526;2024-02-21T01:14:04;22.38;;;11.93;;
80621;SDS011;69980;51.914;7.526;2024-02-21T01:16:29;29.63;;;12.68;;
80621;SDS011;69980;51.914;7.526;2024-02-21T01:18:55;26.23;;;12.65;;
80621;SDS011;69980;51.914;7.526;2024-02-21T01:21:20;22.02;;;12.13;;
80621;SDS011;69980;51.914;7.526;2024-02-21T01:23:45;23.30;;;12.77;;
80621;SDS011;69980;51.914;7.526;2024-02-21T01:26:11;24.70;;;13.18;;
80621;SDS011;69980;51.914;7.526;2024-02-21T01:28:36;25.60;;;12.00;;
80621;SDS011;69980;51.914;7.526;2024-02-21T01:31:01;20.30;;;11.00;;
80621;SDS011;69980;51.914;7.526;2024-02-21T01:33:26;25.23;;;11.88;;
80621;SDS011;69980;51.914;7.526;2024-02-21T01:35:52;24.23;;;12.52;;
80621;SDS011;69980;51.914;7.526;2024-02-21T01:38:17;24.95;;;12.50;;
80621;SDS011;69980;51.914;7.526;2024-02-21T01:40:42;23.90;;;11.98;;
80621;SDS011;69980;51.914;7.526;2024-02-21T01:43:17;25.33;;;11.55;;
80621;SDS011;69980;51.914;7.526;2024-02-21T01:45:45;20.08;;;11.90;;
80621;SDS011;69980;51.914;7.526;2024-02-21T01:48:12;23.23;;;11.43;;
80621;SDS011;69980;51.914;7.526;2024-02-21T01:50:37;23.35;;;12.15;;
80621;SDS011;69980;51.914;7.526;2024-02-21T01:53:02;21.55;;;11.60;;
80621;SDS011;69980;51.914;7.526;2024-02-21T01:55:28;20.27;;;11.55;;
80621;SDS011;69980;51.914;7.526;2024-02-21T01:57:53;24.20;;;12.35;;
80621;SDS011;69980;51.914;7.526;2024-02-21T02:00:18;24.27;;;11.30;;
80621;SDS011;69980;51.914;7.526;2024-02-21T02:02:44;23.10;;;11.35;;
80621;SDS011;69980;51.914;7.526;2024-02-21T02:05:10;28.10;;;11.95;;
80621;SDS011;69980;51.914;7.526;2024-02-21T02:07:36;24.13;;;11.60;;
80621;SDS011;69980;51.914;7.526;2024-02-21T02:10:01;23.95;;;11.90;;
80621;SDS011;69980;51.914;7.526;2024-02-21T02:12:27;21.50;;;12.13;;
80621;SDS011;69980;51.914;7.526;2024-02-21T02:14:59;24.63;;;11.65;;
80621;SDS011;69980;51.914;7.526;2024-02-21T02:17:24;20.15;;;12.00;;
80621;SDS011;69980;51.914;7.526;2024-02-21T02:19:50;18.92;;;11.73;;
80621;SDS011;69980;51.914;7.526;2024-02-21T02:22:16;21.98;;;11.75;;
80621;SDS011;69980;51.914;7.526;2024-02-21T02:24:45;21.70;;;11.23;;
80621;SDS011;69980;51.914;7.526;2024-02-21T02:27:10;19.38;;;11.07;;
80621;SDS011;69980;51.914;7.526;2024-02-21T02:29:36;22.23;;;11.73;;
80621;SDS011;69980;51.914;7.526;2024-02-21T02:32:01;22.15;;;11.18;;
80621;SDS011;69980;51.914;7.526;2024-02-21T02:34:26;21.17;;;11.27;;
80621;SDS011;69980;51.914;7.526;2024-02-21T02:36:51;22.10;;;11.77;;
80621;SDS011;69980;51.914;7.526;2024-02-21T02:39:17;19.50;;;11.60;;
80621;SDS011;69980;51.914;7.526;2024-02-21T02:41:42;21.63;;;11.43;;
80621;SDS011;69980;51.914;7.526;2024-02-21T02:44:07;21.05;;;11.80;;
80621;SDS011;69980;51.914;7.526;2024-02-21T02:46:33;23.55;;;12.02;;
80621;SDS011;69980;51.914;7.526;2024-02-21T02:48:58;20.85;;;11.25;;
80621;SDS011;69980;51.914;7.526;2024-02-21T02:51:23;21.65;;;12.20;;
80621;SDS011;69980;51.914;7.526;2024-02-21T02:53:48;22.10;;;11.10;;
80621;SDS011;69980;51.914;7.526;2024-02-21T02:56:17;21.08;;;11.45;;
80621;SDS011;69980;51.914;7.526;2024-02-21T02:58:43;24.90;;;12.18;;
80621;SDS011;69980;51.914;7.526;2024-02-21T03:01:08;23.35;;;11.55;;
80621;SDS011;69980;51.914;7.526;2024-02-21T03:03:33;19.17;;;10.75;;
80621;SDS011;69980;51.914;7.526;2024-02-21T03:05:59;23.05;;;11.60;;
80621;SDS011;69980;51.914;7.526;2024-02-21T03:08:24;18.40;;;10.20;;
80621;SDS011;69980;51.914;7.526;2024-02-21T03:10:49;21.00;;;11.10;;
80621;SDS011;69980;51.914;7.526;2024-02-21T03:13:15;21.80;;;11.50;;
80621;SDS011;69980;51.914;7.526;2024-02-21T03:15:40;21.38;;;10.48;;
80621;SDS011;69980;51.914;7.526;2024-02-21T03:18:05;19.80;;;10.35;;
80621;SDS011;69980;51.914;7.526;2024-02-21T03:20:31;21.02;;;11.00;;
80621;SDS011;69980;51.914;7.526;2024-02-21T03:22:56;18.45;;;10.10;;
80621;SDS011;69980;51.914;7.526;2024-02-21T03:25:21;16.90;;;10.27;;
80621;SDS011;69980;51.914;7.526;2024-02-21T03:27:46;21.23;;;11.02;;
80621;SDS011;69980;51.914;7.526;2024-02-21T03:30:12;17.67;;;10.75;;
80621;SDS011;69980;51.914;7.526;2024-02-21T03:32:37;21.38;;;10.70;;
80621;SDS011;69980;51.914;7.526;2024-02-21T03:35:03;19.42;;;10.25;;
80621;SDS011;69980;51.914;7.526;2024-02-21T03:37:28;20.25;;;10.30;;
80621;SDS011;69980;51.914;7.526;2024-02-21T03:39:53;17.23;;;10.30;;
80621;SDS011;69980;51.914;7.526;2024-02-21T03:42:19;18.10;;;9.80;;
80621;SDS011;69980;51.914;7.526;2024-02-21T03:44:44;17.80;;;9.75;;
80621;SDS011;69980;51.914;7.526;2024-02-21T03:47:09;15.65;;;9.32;;
80621;SDS011;69980;51.914;7.526;2024-02-21T03:49:35;18.50;;;9.95;;
80621;SDS011;69980;51.914;7.526;2024-02-21T03:52:00;18.02;;;9.70;;
80621;SDS011;69980;51.914;7.526;2024-02-21T03:54:25;17.23;;;9.40;;
80621;SDS011;69980;51.914;7.526;2024-02-21T03:56:50;19.20;;;9.80;;
80621;SDS011;69980;51.914;7.526;2024-02-21T03:59:16;15.95;;;9.57;;
80621;SDS011;69980;51.914;7.526;2024-02-21T04:01:41;18.55;;;9.88;;
80621;SDS011;69980;51.914;7.526;2024-02-21T04:04:07;18.00;;;8.88;;
80621;SDS011;69980;51.914;7.526;2024-02-21T04:06:32;15.15;;;9.00;;
80621;SDS011;69980;51.914;7.526;2024-02-21T04:08:57;16.02;;;9.20;;
80621;SDS011;69980;51.914;7.526;2024-02-21T04:11:22;18.38;;;9.40;;
80621;SDS011;69980;51.914;7.526;2024-02-21T04:13:48;16.02;;;8.73;;
80621;SDS011;69980;51.914;7.526;2024-02-21T04:16:13;15.68;;;8.35;;
80621;SDS011;69980;51.914;7.526;2024-02-21T04:18:39;14.55;;;8.55;;
80621;SDS011;69980;51.914;7.526;2024-02-21T04:21:04;16.20;;;8.60;;
80621;SDS011;69980;51.914;7.526;2024-02-21T04:23:30;15.05;;;8.60;;
80621;SDS011;69980;51.914;7.526;2024-02-21T04:25:55;17.48;;;8.07;;
80621;SDS011;69980;51.914;7.526;2024-02-21T04:28:20;16.00;;;8.55;;
80621;SDS011;69980;51.914;7.526;2024-02-21T04:30:46;15.98;;;8.25;;
80621;SDS011;69980;51.914;7.526;2024-02-21T04:33:11;14.00;;;7.60;;
80621;SDS011;69980;51.914;7.526;2024-02-21T04:35:36;13.68;;;7.88;;
80621;SDS011;69980;51.914;7.526;2024-02-21T04:38:01;15.85;;;7.70;;
80621;SDS011;69980;51.914;7.526;2024-02-21T04:40:27;13.95;;;7.80;;
80621;SDS011;69980;51.914;7.526;2024-02-21T04:42:52;14.60;;;7.65;;
80621;SDS011;69980;51.914;7.526;2024-02-21T04:45:17;13.90;;;8.48;;
80621;SDS011;69980;51.914;7.526;2024-02-21T04:47:43;14.60;;;7.63;;
80621;SDS011;69980;51.914;7.526;2024-02-21T04:50:08;14.35;;;8.07;;
80621;SDS011;69980;51.914;7.526;2024-02-21T04:52:33;15.73;;;8.48;;
80621;SDS011;69980;51.914;7.526;2024-02-21T04:54:59;15.98;;;7.80;;
80621;SDS011;69980;51.914;7.526;2024-02-21T04:57:24;16.00;;;8.40;;
80621;SDS011;69980;51.914;7.526;2024-02-21T04:59:49;15.60;;;8.07;;
80621;SDS011;69980;51.914;7.526;2024-02-21T05:02:15;15.10;;;7.40;;
80621;SDS011;69980;51.914;7.526;2024-02-21T05:04:41;16.95;;;7.97;;
80621;SDS011;69980;51.914;7.526;2024-02-21T05:07:07;15.80;;;7.18;;
80621;SDS011;69980;51.914;7.526;2024-02-21T05:09:32;15.43;;;7.82;;
80621;SDS011;69980;51.914;7.526;2024-02-21T05:11:58;16.50;;;7.38;;
80621;SDS011;69980;51.914;7.526;2024-02-21T05:14:23;14.32;;;6.97;;
80621;SDS011;69980;51.914;7.526;2024-02-21T05:16:48;11.90;;;7.32;;
80621;SDS011;69980;51.914;7.526;2024-02-21T05:19:14;12.60;;;7.03;;
80621;SDS011;69980;51.914;7.526;2024-02-21T05:21:39;14.57;;;7.57;;
80621;SDS011;69980;51.914;7.526;2024-02-21T05:24:04;15.13;;;7.68;;
80621;SDS011;69980;51.914;7.526;2024-02-21T05:26:30;14.73;;;7.63;;
80621;SDS011;69980;51.914;7.526;2024-02-21T05:28:55;14.82;;;8.23;;
80621;SDS011;69980;51.914;7.526;2024-02-21T05:31:20;14.27;;;7.75;;
80621;SDS011;69980;51.914;7.526;2024-02-21T05:33:46;15.23;;;7.25;;
80621;SDS011;69980;51.914;7.526;2024-02-21T05:36:11;16.35;;;8.40;;
80621;SDS011;69980;51.914;7.526;2024-02-21T05:38:37;13.07;;;7.25;;
80621;SDS011;69980;51.914;7.526;2024-02-21T05:41:03;12.48;;;7.35;;
80621;SDS011;69980;51.914;7.526;2024-02-21T05:43:28;15.15;;;7.72;;
80621;SDS011;69980;51.914;7.526;2024-02-21T05:45:53;14.63;;;7.85;;
80621;SDS011;69980;51.914;7.526;2024-02-21T05:48:19;15.77;;;7.70;;
80621;SDS011;69980;51.914;7.526;2024-02-21T05:50:44;14.57;;;6.70;;
80621;SDS011;69980;51.914;7.526;2024-02-21T05:53:10;14.18;;;7.40;;
80621;SDS011;69980;51.914;7.526;2024-02-21T05:55:35;11.55;;;7.03;;
80621;SDS011;69980;51.914;7.526;2024-02-21T05:58:00;17.40;;;6.82;;
80621;SDS011;69980;51.914;7.526;2024-02-21T06:00:26;13.98;;;6.80;;
80621;SDS011;69980;51.914;7.526;2024-02-21T06:02:51;12.48;;;7.07;;
80621;SDS011;69980;51.914;7.526;2024-02-21T06:05:17;11.80;;;6.82;;
80621;SDS011;69980;51.914;7.526;2024-02-21T06:07:42;12.95;;;7.20;;
80621;SDS011;69980;51.914;7.526;2024-02-21T06:10:07;14.50;;;6.75;;
80621;SDS011;69980;51.914;7.526;2024-02-21T06:12:33;12.48;;;6.75;;
80621;SDS011;69980;51.914;7.526;2024-02-21T06:14:58;15.15;;;7.47;;
80621;SDS011;69980;51.914;7.526;2024-02-21T06:17:23;15.10;;;8.27;;
80621;SDS011;69980;51.914;7.526;2024-02-21T06:19:49;14.20;;;7.63;;
80621;SDS011;69980;51.914;7.526;2024-02-21T06:22:14;16.05;;;8.55;;
80621;SDS011;69980;51.914;7.526;2024-02-21T06:24:39;16.67;;;8.32;;
80621;SDS011;69980;51.914;7.526;2024-02-21T06:27:05;17.70;;;9.25;;
80621;SDS011;69980;51.914;7.526;2024-02-21T06:29:30;15.88;;;9.13;;
80621;SDS011;69980;51.914;7.526;2024-02-21T06:31:55;18.95;;;9.32;;
80621;SDS011;69980;51.914;7.526;2024-02-21T06:34:21;21.48;;;9.40;;
80621;SDS011;69980;51.914;7.526;2024-02-21T06:36:46;16.77;;;8.38;;
80621;SDS011;69980;51.914;7.526;2024-02-21T06:39:11;19.08;;;8.40;;
80621;SDS011;69980;51.914;7.526;2024-02-21T06:41:37;17.00;;;8.27;;
80621;SDS011;69980;51.914;7.526;2024-02-21T06:44:02;17.45;;;8.82;;
80621;SDS011;69980;51.914;7.526;2024-02-21T06:46:28;13.73;;;8.18;;
80621;SDS011;69980;51.914;7.526;2024-02-21T06:48:54;14.57;;;7.70;;
80621;SDS011;69980;51.914;7.526;2024-02-21T06:51:20;16.35;;;8.63;;
80621;SDS011;69980;51.914;7.526;2024-02-21T06:53:45;16.35;;;8.00;;
80621;SDS011;69980;51.914;7.526;2024-02-21T06:56:10;15.40;;;7.70;;
80621;SDS011;69980;51.914;7.526;2024-02-21T06:58:36;16.30;;;7.75;;
80621;SDS011;69980;51.914;7.526;2024-02-21T07:01:01;14.88;;;7.05;;
80621;SDS011;69980;51.914;7.526;2024-02-21T07:03:27;14.75;;;7.60;;
80621;SDS011;69980;51.914;7.526;2024-02-21T07:05:52;18.45;;;7.85;;
80621;SDS011;69980;51.914;7.526;2024-02-21T07:08:17;15.80;;;7.43;;
80621;SDS011;69980;51.914;7.526;2024-02-21T07:10:43;12.32;;;6.63;;
80621;SDS011;69980;51.914;7.526;2024-02-21T07:13:08;12.52;;;6.93;;
80621;SDS011;69980;51.914;7.526;2024-02-21T07:15:33;13.68;;;6.82;;
80621;SDS011;69980;51.914;7.526;2024-02-21T07:17:59;11.20;;;6.65;;
80621;SDS011;69980;51.914;7.526;2024-02-21T07:20:24;14.30;;;7.18;;
80621;SDS011;69980;51.914;7.526;2024-02-21T07:22:49;13.98;;;6.68;;
80621;SDS011;69980;51.914;7.526;2024-02-21T07:25:15;14.20;;;6.95;;
80621;SDS011;69980;51.914;7.526;2024-02-21T07:27:40;11.57;;;6.22;;
80621;SDS011;69980;51.914;7.526;2024-02-21T07:30:06;13.98;;;6.97;;
80621;SDS011;69980;51.914;7.526;2024-02-21T07:32:31;17.45;;;6.93;;
80621;SDS011;69980;51.914;7.526;2024-02-21T07:34:56;11.63;;;6.60;;
80621;SDS011;69980;51.914;7.526;2024-02-21T07:37:22;12.35;;;7.00;;
80621;SDS011;69980;51.914;7.526;2024-02-21T07:39:47;12.82;;;7.07;;
80621;SDS011;69980;51.914;7.526;2024-02-21T07:42:12;13.63;;;6.75;;
80621;SDS011;69980;51.914;7.526;2024-02-21T07:44:38;15.20;;;6.10;;
80621;SDS011;69980;51.914;7.526;2024-02-21T07:47:03;12.43;;;6.25;;
80621;SDS011;69980;51.914;7.526;2024-02-21T07:49:28;14.15;;;6.28;;
80621;SDS011;69980;51.914;7.526;2024-02-21T07:51:54;12.80;;;6.25;;
80621;SDS011;69980;51.914;7.526;2024-02-21T07:54:19;12.38;;;6.05;;
80621;SDS011;69980;51.914;7.526;2024-02-21T07:56:44;12.18;;;5.70;;
80621;SDS011;69980;51.914;7.526;2024-02-21T07:59:09;11.82;;;6.03;;
80621;SDS011;69980;51.914;7.526;2024-02-21T08:01:35;11.00;;;5.75;;
80621;SDS011;69980;51.914;7.526;2024-02-21T08:04:00;15.13;;;5.85;;
80621;SDS011;69980;51.914;7.526;2024-02-21T08:06:25;11.05;;;5.65;;
80621;SDS011;69980;51.914;7.526;2024-02-21T08:08:52;13.05;;;5.40;;
80621;SDS011;69980;51.914;7.526;2024-02-21T08:11:17;10.80;;;5.45;;
80621;SDS011;69980;51.914;7.526;2024-02-21T08:13:42;10.75;;;5.07;;
80621;SDS011;69980;51.914;7.526;2024-02-21T08:16:08;12.75;;;5.00;;
80621;SDS011;69980;51.914;7.526;2024-02-21T08:18:33;10.02;;;5.25;;
80621;SDS011;69980;51.914;7.526;2024-02-21T08:20:58;8.25;;;4.80;;
80621;SDS011;69980;51.914;7.526;2024-02-21T08:23:23;8.85;;;4.72;;
80621;SDS011;69980;51.914;7.526;2024-02-21T08:25:49;9.63;;;5.00;;
80621;SDS011;69980;51.914;7.526;2024-02-21T08:28:14;8.57;;;4.85;;
80621;SDS011;69980;51.914;7.526;2024-02-21T08:30:39;10.70;;;5.28;;
80621;SDS011;69980;51.914;7.526;2024-02-21T08:33:05;8.68;;;4.80;;
80621;SDS011;69980;51.914;7.526;2024-02-21T08:35:30;11.23;;;5.10;;
80621;SDS011;69980;51.914;7.526;2024-02-21T08:37:55;9.27;;;4.55;;
80621;SDS011;69980;51.914;7.526;2024-02-21T08:40:20;8.90;;;5.05;;
80621;SDS011;69980;51.914;7.526;2024-02-21T08:42:46;10.43;;;4.82;;
80621;SDS011;69980;51.914;7.526;2024-02-21T08:45:12;12.05;;;5.13;;
80621;SDS011;69980;51.914;7.526;2024-02-21T08:47:40;9.70;;;5.20;;
80621;SDS011;69980;51.914;7.526;2024-02-21T08:50:06;11.07;;;4.95;;
80621;SDS011;69980;51.914;7.526;2024-02-21T08:52:32;9.32;;;4.75;;
80621;SDS011;69980;51.914;7.526;2024-02-21T08:54:57;12.93;;;5.15;;
80621;SDS011;69980;51.914;7.526;2024-02-21T08:57:22;9.48;;;4.90;;
80621;SDS011;69980;51.914;7.526;2024-02-21T08:59:48;8.80;;;4.85;;
80621;SDS011;69980;51.914;7.526;2024-02-21T09:02:13;11.02;;;4.82;;
80621;SDS011;69980;51.914;7.526;2024-02-21T09:04:39;9.32;;;4.85;;
80621;SDS011;69980;51.914;7.526;2024-02-21T09:07:04;9.98;;;4.80;;
80621;SDS011;69980;51.914;7.526;2024-02-21T09:09:29;12.10;;;4.85;;
80621;SDS011;69980;51.914;7.526;2024-02-21T09:11:54;8.13;;;4.03;;
80621;SDS011;69980;51.914;7.526;2024-02-21T09:14:20;11.60;;;4.65;;
80621;SDS011;69980;51.914;7.526;2024-02-21T09:16:45;11.30;;;4.72;;
80621;SDS011;69980;51.914;7.526;2024-02-21T09:19:10;10.02;;;4.60;;
80621;SDS011;69980;51.914;7.526;2024-02-21T09:21:36;10.13;;;5.20;;
80621;SDS011;69980;51.914;7.526;2024-02-21T09:24:05;9.32;;;4.22;;
80621;SDS011;69980;51.914;7.526;2024-02-21T09:26:30;8.70;;;4.88;;
80621;SDS011;69980;51.914;7.526;2024-02-21T09:28:56;10.00;;;4.50;;
80621;SDS011;69980;51.914;7.526;2024-02-21T09:31:21;8.90;;;5.00;;
80621;SDS011;69980;51.914;7.526;2024-02-21T09:33:46;9.07;;;4.80;;
80621;SDS011;69980;51.914;7.526;2024-02-21T09:36:12;11.57;;;5.05;;
80621;SDS011;69980;51.914;7.526;2024-02-21T09:38:39;10.20;;;4.60;;
80621;SDS011;69980;51.914;7.526;2024-02-21T09:41:26;10.10;;;4.35;;
80621;SDS011;69980;51.914;7.526;2024-02-21T09:43:50;10.35;;;4.93;;
80621;SDS011;69980;51.914;7.526;2024-02-21T09:46:16;11.20;;;4.68;;
80621;SDS011;69980;51.914;7.526;2024-02-21T09:48:51;9.18;;;4.50;;
80621;SDS011;69980;51.914;7.526;2024-02-21T09:51:23;8.43;;;4.78;;
80621;SDS011;69980;51.914;7.526;2024-02-21T09:53:50;9.20;;;4.43;;
80621;SDS011;69980;51.914;7.526;2024-02-21T09:56:15;9.68;;;5.10;;
80621;SDS011;69980;51.914;7.526;2024-02-21T09:58:41;8.25;;;4.45;;
80621;SDS011;69980;51.914;7.526;2024-02-21T10:01:06;7.95;;;4.45;;
80621;SDS011;69980;51.914;7.526;2024-02-21T10:03:32;7.13;;;4.20;;
80621;SDS011;69980;51.914;7.526;2024-02-21T10:05:57;7.95;;;4.15;;
80621;SDS011;69980;51.914;7.526;2024-02-21T10:08:23;9.48;;;4.30;;
80621;SDS011;69980;51.914;7.526;2024-02-21T10:10:48;8.18;;;4.43;;
80621;SDS011;69980;51.914;7.526;2024-02-21T10:13:26;9.32;;;4.90;;
80621;SDS011;69980;51.914;7.526;2024-02-21T10:16:02;12.15;;;5.78;;
80621;SDS011;69980;51.914;7.526;2024-02-21T10:18:30;12.63;;;6.10;;
80621;SDS011;69980;51.914;7.526;2024-02-21T10:21:03;11.63;;;7.05;;
80621;SDS011;69980;51.914;7.526;2024-02-21T10:23:29;12.63;;;7.05;;
80621;SDS011;69980;51.914;7.526;2024-02-21T10:26:04;12.35;;;6.68;;
80621;SDS011;69980;51.914;7.526;2024-02-21T10:30:55;9.20;;;5.90;;
80621;SDS011;69980;51.914;7.526;2024-02-21T10:33:20;9.63;;;5.13;;
80621;SDS011;69980;51.914;7.526;2024-02-21T10:35:45;9.35;;;5.50;;
80621;SDS011;69980;51.914;7.526;2024-02-21T10:38:10;10.30;;;5.82;;
80621;SDS011;69980;51.914;7.526;2024-02-21T10:40:36;7.13;;;3.83;;
80621;SDS011;69980;51.914;7.526;2024-02-21T10:43:01;8.40;;;3.92;;
80621;SDS011;69980;51.914;7.526;2024-02-21T10:45:30;10.15;;;3.72;;
80621;SDS011;69980;51.914;7.526;2024-02-21T10:48:13;6.93;;;3.60;;
80621;SDS011;69980;51.914;7.526;2024-02-21T10:53:18;6.93;;;3.08;;
80621;SDS011;69980;51.914;7.526;2024-02-21T10:55:49;5.40;;;2.83;;
80621;SDS011;69980;51.914;7.526;2024-02-21T10:58:21;6.97;;;2.53;;
80621;SDS011;69980;51.914;7.526;2024-02-21T11:00:47;6.15;;;2.88;;
80621;SDS011;69980;51.914;7.526;2024-02-21T11:03:12;5.93;;;2.88;;
80621;SDS011;69980;51.914;7.526;2024-02-21T11:05:37;6.40;;;2.33;;
80621;SDS011;69980;51.914;7.526;2024-02-21T11:08:03;4.57;;;2.35;;
80621;SDS011;69980;51.914;7.526;2024-02-21T11:10:30;6.85;;;2.58;;
80621;SDS011;69980;51.914;7.526;2024-02-21T11:13:06;4.70;;;2.20;;
80621;SDS011;69980;51.914;7.526;2024-02-21T11:15:34;6.70;;;2.38;;
80621;SDS011;69980;51.914;7.526;2024-02-21T11:18:00;6.53;;;2.53;;
80621;SDS011;69980;51.914;7.526;2024-02-21T11:20:31;8.38;;;3.58;;
80621;SDS011;69980;51.914;7.526;2024-02-21T11:22:57;8.35;;;2.65;;
80621;SDS011;69980;51.914;7.526;2024-02-21T11:25:23;5.63;;;2.70;;
80621;SDS011;69980;51.914;7.526;2024-02-21T11:27:48;6.13;;;2.60;;
80621;SDS011;69980;51.914;7.526;2024-02-21T11:30:13;5.38;;;2.40;;
80621;SDS011;69980;51.914;7.526;2024-02-21T11:32:39;4.00;;;2.47;;
80621;SDS011;69980;51.914;7.526;2024-02-21T11:35:04;5.57;;;2.60;;
80621;SDS011;69980;51.914;7.526;2024-02-21T11:37:30;6.45;;;2.67;;
80621;SDS011;69980;51.914;7.526;2024-02-21T11:39:57;5.15;;;2.67;;
80621;SDS011;69980;51.914;7.526;2024-02-21T11:42:22;6.05;;;2.55;;
80621;SDS011;69980;51.914;7.526;2024-02-21T11:44:50;7.47;;;3.00;;
80621;SDS011;69980;51.914;7.526;2024-02-21T11:47:15;6.13;;;3.03;;
80621;SDS011;69980;51.914;7.526;2024-02-21T11:49:47;7.68;;;3.10;;
80621;SDS011;69980;51.914;7.526;2024-02-21T11:52:13;8.15;;;3.08;;
80621;SDS011;69980;51.914;7.526;2024-02-21T11:54:38;5.93;;;3.03;;
80621;SDS011;69980;51.914;7.526;2024-02-21T11:57:04;6.57;;;3.22;;
80621;SDS011;69980;51.914;7.526;2024-02-21T11:59:30;6.40;;;3.28;;
80621;SDS011;69980;51.914;7.526;2024-02-21T12:01:55;7.60;;;3.50;;
80621;SDS011;69980;51.914;7.526;2024-02-21T12:04:21;6.50;;;3.78;;
80621;SDS011;69980;51.914;7.526;2024-02-21T12:06:46;9.10;;;4.53;;
80621;SDS011;69980;51.914;7.526;2024-02-21T12:09:18;7.68;;;4.10;;
80621;SDS011;69980;51.914;7.526;2024-02-21T12:11:43;7.60;;;3.95;;
80621;SDS011;69980;51.914;7.526;2024-02-21T12:14:09;8.10;;;3.95;;
80621;SDS011;69980;51.914;7.526;2024-02-21T12:16:35;7.78;;;4.30;;
80621;SDS011;69980;51.914;7.526;2024-02-21T12:19:00;7.40;;;3.92;;
80621;SDS011;69980;51.914;7.526;2024-02-21T12:21:26;8.65;;;3.80;;
80621;SDS011;69980;51.914;7.526;2024-02-21T12:23:52;6.20;;;3.80;;
80621;SDS011;69980;51.914;7.526;2024-02-21T12:26:17;6.63;;;3.60;;
80621;SDS011;69980;51.914;7.526;2024-02-21T12:28:43;7.45;;;3.50;;
80621;SDS011;69980;51.914;7.526;2024-02-21T12:31:08;7.20;;;3.85;;
80621;SDS011;69980;51.914;7.526;2024-02-21T12:33:33;8.13;;;3.42;;
80621;SDS011;69980;51.914;7.526;2024-02-21T12:35:59;10.35;;;3.58;;
80621;SDS011;69980;51.914;7.526;2024-02-21T12:38:24;7.13;;;3.53;;
80621;SDS011;69980;51.914;7.526;2024-02-21T12:40:49;11.73;;;3.83;;
80621;SDS011;69980;51.914;7.526;2024-02-21T12:43:14;9.25;;;3.50;;
80621;SDS011;69980;51.914;7.526;2024-02-21T12:45:40;6.93;;;3.40;;
80621;SDS011;69980;51.914;7.526;2024-02-21T12:48:05;8.52;;;4.00;;
80621;SDS011;69980;51.914;7.526;2024-02-21T12:50:31;7.82;;;3.50;;
80621;SDS011;69980;51.914;7.526;2024-02-21T12:52:56;8.32;;;3.72;;
80621;SDS011;69980;51.914;7.526;2024-02-21T12:55:22;10.77;;;3.60;;
80621;SDS011;69980;51.914;7.526;2024-02-21T12:57:47;6.32;;;3.40;;
80621;SDS011;69980;51.914;7.526;2024-02-21T13:00:13;7.70;;;4.00;;
80621;SDS011;69980;51.914;7.526;2024-02-21T13:02:38;6.88;;;3.85;;
80621;SDS011;69980;51.914;7.526;2024-02-21T13:05:03;8.43;;;4.40;;
80621;SDS011;69980;51.914;7.526;2024-02-21T13:07:29;9.40;;;3.50;;
80621;SDS011;69980;51.914;7.526;2024-02-21T13:09:54;7.85;;;4.20;;
80621;SDS011;69980;51.914;7.526;2024-02-21T13:12:20;8.98;;;4.40;;
80621;SDS011;69980;51.914;7.526;2024-02-21T13:14:45;7.13;;;4.32;;
80621;SDS011;69980;51.914;7.526;2024-02-21T13:17:10;9.07;;;4.40;;
80621;SDS011;69980;51.914;7.526;2024-02-21T13:19:36;9.68;;;4.53;;
80621;SDS011;69980;51.914;7.526;2024-02-21T13:22:01;9.95;;;4.85;;
80621;SDS011;69980;51.914;7.526;2024-02-21T13:24:26;7.65;;;4.57;;
80621;SDS011;69980;51.914;7.526;2024-02-21T13:26:52;9.02;;;4.53;;
80621;SDS011;69980;51.914;7.526;2024-02-21T13:29:17;9.00;;;4.70;;
80621;SDS011;69980;51.914;7.526;2024-02-21T13:31:43;7.80;;;4.70;;
80621;SDS011;69980;51.914;7.526;2024-02-21T13:34:09;10.27;;;4.70;;
80621;SDS011;69980;51.914;7.526;2024-02-21T13:36:34;10.25;;;4.80;;
80621;SDS011;69980;51.914;7.526;2024-02-21T13:38:59;7.97;;;4.82;;
80621;SDS011;69980;51.914;7.526;2024-02-21T13:41:25;12.50;;;4.78;;
80621;SDS011;69980;51.914;7.526;2024-02-21T13:43:50;9.57;;;4.95;;
80621;SDS011;69980;51.914;7.526;2024-02-21T13:46:15;9.02;;;4.45;;
80621;SDS011;69980;51.914;7.526;2024-02-21T13:48:41;7.53;;;4.20;;
80621;SDS011;69980;51.914;7.526;2024-02-21T13:51:06;10.85;;;4.32;;
80621;SDS011;69980;51.914;7.526;2024-02-21T13:53:31;7.82;;;4.65;;
80621;SDS011;69980;51.914;7.526;2024-02-21T13:55:56;8.80;;;4.45;;
80621;SDS011;69980;51.914;7.526;2024-02-21T13:58:22;8.70;;;4.07;;
80621;SDS011;69980;51.914;7.526;2024-02-21T14:00:47;11.98;;;4.13;;
80621;SDS011;69980;51.914;7.526;2024-02-21T14:03:12;8.40;;;4.05;;
80621;SDS011;69980;51.914;7.526;2024-02-21T14:05:38;10.13;;;3.63;;
80621;SDS011;69980;51.914;7.526;2024-02-21T14:08:03;7.97;;;3.38;;
80621;SDS011;69980;51.914;7.526;2024-02-21T14:10:29;9.35;;;3.13;;
80621;SDS011;69980;51.914;7.526;2024-02-21T14:12:54;8.85;;;3.25;;
80621;SDS011;69980;51.914;7.526;2024-02-21T14:15:19;7.22;;;2.88;;
80621;SDS011;69980;51.914;7.526;2024-02-21T14:17:44;9.32;;;2.88;;
80621;SDS011;69980;51.914;7.526;2024-02-21T14:20:10;7.82;;;3.17;;
80621;SDS011;69980;51.914;7.526;2024-02-21T14:22:35;8.65;;;2.85;;
80621;SDS011;69980;51.914;7.526;2024-02-21T14:25:01;6.90;;;2.92;;
80621;SDS011;69980;51.914;7.526;2024-02-21T14:27:26;7.88;;;3.03;;
80621;SDS011;69980;51.914;7.526;2024-02-21T14:29:51;6.60;;;2.53;;
80621;SDS011;69980;51.914;7.526;2024-02-21T14:32:17;8.20;;;3.00;;